sim
Sign-in with your pilot id or email,
or register
Callsign
Passwort

Schedule Details

Flight Number: OEO4543
Departure: Bremen Airport (EDDW) at 15:05
Arrival: Munich Airport (EDDM) at 16:30

Weather Information
Getting current METAR information for EDDW 240120Z 16009KT CAVOK 17/12 Q0997
Getting current METAR information for EDDM 240120Z 24003KT CAVOK 11/11 Q1009 NOSIG

Schedule Frequency

Route Map